createdAt,value
2018-11-22T00:00:42.321Z,18.19
2018-11-22T00:01:42.432Z,18.18
2018-11-22T00:02:42.472Z,18.26
2018-11-22T00:03:42.365Z,18.19
2018-11-22T00:04:42.372Z,18.18
2018-11-22T00:05:42.393Z,18.09
2018-11-22T00:06:42.633Z,18.18
2018-11-22T00:07:42.410Z,18.16
2018-11-22T00:08:42.478Z,18.13
2018-11-22T00:09:42.444Z,18.16
2018-11-22T00:10:42.580Z,18.11
2018-11-22T00:11:42.743Z,18.18
2018-11-22T00:12:42.477Z,18.05
2018-11-22T00:13:42.497Z,18.11
2018-11-22T00:14:42.520Z,18.13
2018-11-22T00:15:42.522Z,18.16
2018-11-22T00:16:42.687Z,18.15
2018-11-22T00:17:42.544Z,18.18
2018-11-22T00:18:42.684Z,18.23
2018-11-22T00:19:42.705Z,18.23
2018-11-22T00:20:42.596Z,18.21
2018-11-22T00:21:42.714Z,18.21
2018-11-22T00:22:42.743Z,18.23
2018-11-22T00:23:42.631Z,18.16
2018-11-22T00:24:42.640Z,18.27
2018-11-22T00:25:42.648Z,18.18
2018-11-22T00:26:42.824Z,18.28
2018-11-22T00:27:42.677Z,18.23
2018-11-22T00:28:42.706Z,18.21
2018-11-22T00:29:42.726Z,18.26
2018-11-22T00:30:42.729Z,18.23
2018-11-22T00:31:42.885Z,18.18
2018-11-22T00:32:42.747Z,18.26
2018-11-22T00:33:42.772Z,18.26
2018-11-22T00:34:42.901Z,18.30
2018-11-22T00:35:42.787Z,18.21
2018-11-22T00:36:42.843Z,18.21
2018-11-22T00:37:42.935Z,18.21
2018-11-22T00:38:42.878Z,18.21
2018-11-22T00:39:42.841Z,18.19
2018-11-22T00:40:42.854Z,18.24
2018-11-22T00:41:42.868Z,18.26
2018-11-22T00:42:43.105Z,18.15
2018-11-22T00:43:42.910Z,18.24
2018-11-22T00:44:42.899Z,18.12
2018-11-22T00:45:42.925Z,18.15
2018-11-22T00:46:42.939Z,18.24
2018-11-22T00:47:43.052Z,18.12
2018-11-22T00:48:42.958Z,18.12
2018-11-22T00:49:43.095Z,18.09
2018-11-22T00:50:42.979Z,18.11
2018-11-22T00:51:42.991Z,18.09
2018-11-22T00:52:43.237Z,18.13
2018-11-22T00:53:43.024Z,18.08
2018-11-22T00:54:43.036Z,18.11
2018-11-22T00:55:43.050Z,18.11
2018-11-22T00:56:43.057Z,18.13
2018-11-22T00:57:43.233Z,18.11
2018-11-22T00:58:43.091Z,18.11
2018-11-22T00:59:43.229Z,18.08
2018-11-22T01:00:43.131Z,18.16
2018-11-22T01:01:43.168Z,18.18
2018-11-22T01:02:43.186Z,18.13
2018-11-22T01:03:43.160Z,18.21
2018-11-22T01:04:43.293Z,18.24
2018-11-22T01:05:43.194Z,18.21
2018-11-22T01:06:43.189Z,18.28
2018-11-22T01:07:43.386Z,18.19
2018-11-22T01:08:43.227Z,18.30
2018-11-22T01:09:43.358Z,18.28
2018-11-22T01:10:43.250Z,18.30
2018-11-22T01:11:43.365Z,18.30
2018-11-22T01:12:43.398Z,18.28
2018-11-22T01:13:43.282Z,18.30
2018-11-22T01:14:43.309Z,18.30
2018-11-22T01:15:43.438Z,18.33
2018-11-22T01:16:43.439Z,18.37
2018-11-22T01:17:43.468Z,18.34
2018-11-22T01:18:43.354Z,18.39
2018-11-22T01:19:43.380Z,18.42
2018-11-22T01:20:43.393Z,18.37
2018-11-22T01:21:43.550Z,18.37
2018-11-22T01:22:43.533Z,18.37
2018-11-22T01:23:43.420Z,18.43
2018-11-22T01:24:43.558Z,18.45
2018-11-22T01:25:43.570Z,18.42
2018-11-22T01:26:43.561Z,18.42
2018-11-22T01:27:43.597Z,18.39
2018-11-22T01:28:43.610Z,18.43
2018-11-22T01:29:43.504Z,18.34
2018-11-22T01:30:43.507Z,18.37
2018-11-22T01:31:43.723Z,18.36
2018-11-22T01:32:43.544Z,18.34
2018-11-22T01:33:43.559Z,18.34
2018-11-22T01:34:43.584Z,18.36
2018-11-22T01:35:43.575Z,18.30
2018-11-22T01:36:43.645Z,18.30
2018-11-22T01:37:43.733Z,18.24
2018-11-22T01:38:43.670Z,18.26
2018-11-22T01:39:43.639Z,18.30
2018-11-22T01:40:43.655Z,18.13
2018-11-22T01:41:43.870Z,18.16
2018-11-22T01:42:43.713Z,18.19
2018-11-22T01:43:43.689Z,18.19
2018-11-22T01:44:43.703Z,18.19
2018-11-22T01:45:43.715Z,18.21
2018-11-22T01:46:43.885Z,18.16
2018-11-22T01:47:43.867Z,18.18
2018-11-22T01:48:43.881Z,18.24
2018-11-22T01:49:43.763Z,18.18
2018-11-22T01:50:43.781Z,18.05
2018-11-22T01:51:43.887Z,18.12
2018-11-22T01:52:43.812Z,18.09
2018-11-22T01:53:43.941Z,18.11
2018-11-22T01:54:43.959Z,18.08
2018-11-22T01:55:43.848Z,18.09
2018-11-22T01:56:44.027Z,18.09
2018-11-22T01:57:43.912Z,18.00
2018-11-22T01:58:43.887Z,18.09
2018-11-22T01:59:44.023Z,18.15
2018-11-22T02:00:43.912Z,18.05
2018-11-22T02:01:44.072Z,18.05
2018-11-22T02:02:43.981Z,18.06
2018-11-22T02:03:44.074Z,18.05
2018-11-22T02:04:43.966Z,18.13
2018-11-22T02:05:43.995Z,18.00
2018-11-22T02:06:44.157Z,18.06
2018-11-22T02:07:44.037Z,18.02
2018-11-22T02:08:44.063Z,18.06
2018-11-22T02:09:44.088Z,17.98
2018-11-22T02:10:44.170Z,18.08
2018-11-22T02:11:44.212Z,18.11
2018-11-22T02:12:44.065Z,18.00
2018-11-22T02:13:44.205Z,18.03
2018-11-22T02:14:44.095Z,18.05
2018-11-22T02:15:44.108Z,18.11
2018-11-22T02:16:44.295Z,18.05
2018-11-22T02:17:44.255Z,18.09
2018-11-22T02:18:44.157Z,18.00
2018-11-22T02:19:44.289Z,18.05
2018-11-22T02:20:44.403Z,18.09
2018-11-22T02:21:44.313Z,18.11
2018-11-22T02:22:44.204Z,18.05
2018-11-22T02:23:44.220Z,18.13
2018-11-22T02:24:44.270Z,18.11
2018-11-22T02:25:44.355Z,18.16
2018-11-22T02:26:44.379Z,18.13
2018-11-22T02:27:44.266Z,18.16
2018-11-22T02:28:44.287Z,18.26
2018-11-22T02:29:44.289Z,18.13
2018-11-22T02:30:44.394Z,18.13
2018-11-22T02:31:44.328Z,18.19
2018-11-22T02:32:44.462Z,18.15
2018-11-22T02:33:44.442Z,18.21
2018-11-22T02:34:44.353Z,18.19
2018-11-22T02:35:44.384Z,18.11
2018-11-22T02:36:44.397Z,18.13
2018-11-22T02:37:44.395Z,18.16
2018-11-22T02:38:44.507Z,18.24
2018-11-22T02:39:44.422Z,18.18
2018-11-22T02:40:44.560Z,18.19
2018-11-22T02:41:44.468Z,18.21
2018-11-22T02:42:44.471Z,18.21
2018-11-22T02:43:44.574Z,18.23
2018-11-22T02:44:44.620Z,18.21
2018-11-22T02:45:44.514Z,18.21
2018-11-22T02:46:44.527Z,18.30
2018-11-22T02:47:44.575Z,18.28
2018-11-22T02:48:44.665Z,18.30
2018-11-22T02:49:44.562Z,18.30
2018-11-22T02:50:44.574Z,18.31
2018-11-22T02:51:44.599Z,18.26
2018-11-22T02:52:44.603Z,18.31
2018-11-22T02:53:44.790Z,18.30
2018-11-22T02:54:44.627Z,18.33
2018-11-22T02:55:44.642Z,18.31
2018-11-22T02:56:44.658Z,18.36
2018-11-22T02:57:44.683Z,18.30
2018-11-22T02:58:44.772Z,18.41
2018-11-22T02:59:44.697Z,18.31
2018-11-22T03:00:44.715Z,18.31
2018-11-22T03:01:44.730Z,18.36
2018-11-22T03:02:44.726Z,18.37
2018-11-22T03:03:44.765Z,18.36
2018-11-22T03:04:44.865Z,18.37
2018-11-22T03:05:44.822Z,18.39
2018-11-22T03:06:44.908Z,18.34
2018-11-22T03:07:44.926Z,18.39
2018-11-22T03:08:44.815Z,18.37
2018-11-22T03:09:45.005Z,18.34
2018-11-22T03:10:44.935Z,18.42
2018-11-22T03:11:44.861Z,18.42
2018-11-22T03:12:44.869Z,18.43
2018-11-22T03:13:44.882Z,18.41
2018-11-22T03:14:44.916Z,18.36
2018-11-22T03:15:45.017Z,18.43
2018-11-22T03:16:44.928Z,18.46
2018-11-22T03:17:44.929Z,18.51
2018-11-22T03:18:44.959Z,18.42
2018-11-22T03:19:45.088Z,18.51
2018-11-22T03:20:45.068Z,18.46
2018-11-22T03:21:45.112Z,18.45
2018-11-22T03:22:45.003Z,18.52
2018-11-22T03:23:45.139Z,18.52
2018-11-22T03:24:45.037Z,18.53
2018-11-22T03:25:45.264Z,18.55
2018-11-22T03:26:45.055Z,18.52
2018-11-22T03:27:45.069Z,18.52
2018-11-22T03:28:45.086Z,18.52
2018-11-22T03:29:45.219Z,18.49
2018-11-22T03:30:45.156Z,18.53
2018-11-22T03:31:45.249Z,18.63
2018-11-22T03:32:45.140Z,18.57
2018-11-22T03:33:45.164Z,18.58
2018-11-22T03:34:45.265Z,18.61
2018-11-22T03:35:45.300Z,18.61
2018-11-22T03:36:45.195Z,18.53
2018-11-22T03:37:45.329Z,18.60
2018-11-22T03:38:45.220Z,18.58
2018-11-22T03:39:45.340Z,18.58
2018-11-22T03:40:45.249Z,18.57
2018-11-22T03:41:45.296Z,18.71
2018-11-22T03:42:45.277Z,18.60
2018-11-22T03:43:45.295Z,18.68
2018-11-22T03:44:45.525Z,18.66
2018-11-22T03:45:45.439Z,18.68
2018-11-22T03:46:45.454Z,18.66
2018-11-22T03:47:45.341Z,18.67
2018-11-22T03:48:45.359Z,18.76
2018-11-22T03:49:50.394Z,18.79
2018-11-22T03:50:45.380Z,18.76
2018-11-22T03:51:45.397Z,18.78
2018-11-22T03:52:45.407Z,18.81
2018-11-22T03:53:45.422Z,18.78
2018-11-22T03:54:45.587Z,18.79
2018-11-22T03:55:45.442Z,18.83
2018-11-22T03:56:45.586Z,18.81
2018-11-22T03:57:45.499Z,18.83
2018-11-22T03:58:45.493Z,18.81
2018-11-22T03:59:45.597Z,18.82
2018-11-22T04:00:45.520Z,18.88
2018-11-22T04:01:45.527Z,18.85
2018-11-22T04:02:45.547Z,18.83
2018-11-22T04:03:45.683Z,18.83
2018-11-22T04:04:45.750Z,18.88
2018-11-22T04:05:45.706Z,18.89
2018-11-22T04:06:45.589Z,18.83
2018-11-22T04:07:45.658Z,18.92
2018-11-22T04:08:45.639Z,18.92
2018-11-22T04:09:45.644Z,18.92
2018-11-22T04:10:45.779Z,18.92
2018-11-22T04:11:45.758Z,18.92
2018-11-22T04:12:45.804Z,18.94
2018-11-22T04:13:45.689Z,18.92
2018-11-22T04:14:45.714Z,18.92
2018-11-22T04:15:45.848Z,18.98
2018-11-22T04:16:45.783Z,18.92
2018-11-22T04:17:45.875Z,18.91
2018-11-22T04:18:45.753Z,19.00
2018-11-22T04:19:45.788Z,18.96
2018-11-22T04:20:45.800Z,18.92
2018-11-22T04:21:45.899Z,18.94
2018-11-22T04:22:45.818Z,18.97
2018-11-22T04:23:45.838Z,18.92
2018-11-22T04:24:45.875Z,18.98
2018-11-22T04:25:45.857Z,18.97
2018-11-22T04:26:46.097Z,19.01
2018-11-22T04:27:45.888Z,18.96
2018-11-22T04:28:45.907Z,18.97
2018-11-22T04:29:46.039Z,19.01
2018-11-22T04:30:45.931Z,18.98
2018-11-22T04:31:46.074Z,19.01
2018-11-22T04:32:46.233Z,18.98
2018-11-22T04:33:45.966Z,18.94
2018-11-22T04:34:45.979Z,19.07
2018-11-22T04:35:46.005Z,19.08
2018-11-22T04:36:46.010Z,19.08
2018-11-22T04:37:46.094Z,19.15
2018-11-22T04:38:46.163Z,19.09
2018-11-22T04:39:46.048Z,19.08
2018-11-22T04:40:46.182Z,19.08
2018-11-22T04:41:46.082Z,19.11
2018-11-22T04:42:46.108Z,19.17
2018-11-22T04:43:46.109Z,19.12
2018-11-22T04:44:46.115Z,19.11
2018-11-22T04:45:46.256Z,19.17
2018-11-22T04:46:46.317Z,19.26
2018-11-22T04:47:46.291Z,19.20
2018-11-22T04:48:46.185Z,19.17
2018-11-22T04:49:46.191Z,19.17
2018-11-22T04:50:46.331Z,19.24
2018-11-22T04:51:46.272Z,19.23
2018-11-22T04:52:46.226Z,19.22
2018-11-22T04:53:46.246Z,19.20
2018-11-22T04:54:46.386Z,19.23
2018-11-22T04:55:46.266Z,19.30
2018-11-22T04:56:46.510Z,19.29
2018-11-22T04:57:46.306Z,19.22
2018-11-22T04:58:46.335Z,19.22
2018-11-22T04:59:46.331Z,19.26
2018-11-22T05:00:46.349Z,19.35
2018-11-22T05:01:46.545Z,19.29
2018-11-22T05:02:46.388Z,19.29
2018-11-22T05:03:46.383Z,19.22
2018-11-22T05:04:46.522Z,19.27
2018-11-22T05:05:46.533Z,19.22
2018-11-22T05:06:46.476Z,19.27
2018-11-22T05:07:46.451Z,19.32
2018-11-22T05:08:46.463Z,19.22
2018-11-22T05:09:46.468Z,19.26
2018-11-22T05:10:46.487Z,19.26
2018-11-22T05:11:46.718Z,19.32
2018-11-22T05:12:46.502Z,19.29
2018-11-22T05:13:46.536Z,19.22
2018-11-22T05:14:46.658Z,19.19
2018-11-22T05:15:46.552Z,19.30
2018-11-22T05:16:46.623Z,19.26
2018-11-22T05:17:46.587Z,19.26
2018-11-22T05:18:46.601Z,19.24
2018-11-22T05:19:46.614Z,19.15
2018-11-22T05:20:46.619Z,19.22
2018-11-22T05:21:46.823Z,19.20
2018-11-22T05:22:46.638Z,19.11
2018-11-22T05:23:46.652Z,19.20
2018-11-22T05:24:46.684Z,19.16
2018-11-22T05:25:46.684Z,19.11
2018-11-22T05:26:46.875Z,19.08
2018-11-22T05:27:46.843Z,19.15
2018-11-22T05:28:46.857Z,19.05
2018-11-22T05:29:46.746Z,19.08
2018-11-22T05:30:46.793Z,19.07
2018-11-22T05:31:46.878Z,19.09
2018-11-22T05:32:46.784Z,19.00
2018-11-22T05:33:46.795Z,18.96
2018-11-22T05:34:46.807Z,19.05
2018-11-22T05:35:46.869Z,18.94
2018-11-22T05:36:46.944Z,18.98
2018-11-22T05:37:46.857Z,18.97
2018-11-22T05:38:46.989Z,18.96
2018-11-22T05:39:46.883Z,18.94
2018-11-22T05:40:46.915Z,18.92
2018-11-22T05:41:47.010Z,18.92
2018-11-22T05:42:46.939Z,18.85
2018-11-22T05:43:46.982Z,18.85
2018-11-22T05:44:46.950Z,18.82
2018-11-22T05:45:46.968Z,18.82
2018-11-22T05:46:47.127Z,18.74
2018-11-22T05:47:46.995Z,18.73
2018-11-22T05:48:47.313Z,18.81
2018-11-22T05:49:47.035Z,18.76
2018-11-22T05:50:47.155Z,18.73
2018-11-22T05:51:47.323Z,18.74
2018-11-22T05:52:47.189Z,18.78
2018-11-22T05:53:47.198Z,18.63
2018-11-22T05:54:47.091Z,18.60
2018-11-22T05:55:47.121Z,18.58
2018-11-22T05:56:47.336Z,18.58
2018-11-22T05:57:47.129Z,18.53
2018-11-22T05:58:47.263Z,18.49
2018-11-22T05:59:47.157Z,18.51
2018-11-22T06:00:47.218Z,18.48
2018-11-22T06:01:47.275Z,18.49
2018-11-22T06:02:47.322Z,18.51
2018-11-22T06:03:47.211Z,18.42
2018-11-22T06:04:47.228Z,18.49
2018-11-22T06:05:47.363Z,18.49
2018-11-22T06:06:47.404Z,18.53
2018-11-22T06:07:47.266Z,18.41
2018-11-22T06:08:47.280Z,18.41
2018-11-22T06:09:47.291Z,18.45
2018-11-22T06:10:47.304Z,18.48
2018-11-22T06:11:47.418Z,18.48
2018-11-22T06:12:47.355Z,18.52
2018-11-22T06:13:47.477Z,18.49
2018-11-22T06:14:47.370Z,18.52
2018-11-22T06:15:47.494Z,18.45
2018-11-22T06:16:47.480Z,18.41
2018-11-22T06:17:47.394Z,18.39
2018-11-22T06:18:47.534Z,18.39
2018-11-22T06:19:47.549Z,18.37
2018-11-22T06:20:47.563Z,18.37
2018-11-22T06:21:47.553Z,18.39
2018-11-22T06:22:47.462Z,18.28
2018-11-22T06:23:47.474Z,18.27
2018-11-22T06:24:47.511Z,18.30
2018-11-22T06:25:47.522Z,18.24
2018-11-22T06:26:47.681Z,18.30
2018-11-22T06:27:47.542Z,18.19
2018-11-22T06:28:47.569Z,18.26
2018-11-22T06:29:47.577Z,18.18
2018-11-22T06:30:47.697Z,18.18
2018-11-22T06:31:47.742Z,18.23
2018-11-22T06:32:47.600Z,18.21
2018-11-22T06:33:47.626Z,18.24
2018-11-22T06:34:47.636Z,18.23
2018-11-22T06:35:47.766Z,18.15
2018-11-22T06:36:47.701Z,18.18
2018-11-22T06:37:47.791Z,18.12
2018-11-22T06:38:47.693Z,18.15
2018-11-22T06:39:47.701Z,18.11
2018-11-22T06:40:47.838Z,18.09
2018-11-22T06:41:47.782Z,17.98
2018-11-22T06:42:47.858Z,18.11
2018-11-22T06:43:47.878Z,18.06
2018-11-22T06:44:47.774Z,18.02
2018-11-22T06:45:47.782Z,17.98
2018-11-22T06:46:47.964Z,17.95
2018-11-22T06:47:47.799Z,18.00
2018-11-22T06:48:47.811Z,17.91
2018-11-22T06:49:47.835Z,17.84
2018-11-22T06:50:47.832Z,17.87
2018-11-22T06:51:48.081Z,17.72
2018-11-22T06:52:47.884Z,17.76
2018-11-22T06:53:47.892Z,17.72
2018-11-22T06:54:47.899Z,17.71
2018-11-22T06:55:51.635Z,17.76
2018-11-22T06:56:48.021Z,17.72
2018-11-22T06:57:47.952Z,17.71
2018-11-22T06:58:47.953Z,17.71
2018-11-22T06:59:48.091Z,17.63
2018-11-22T07:00:47.985Z,17.53
2018-11-22T07:01:48.265Z,17.49
2018-11-22T07:02:48.003Z,17.41
2018-11-22T07:03:48.013Z,17.41
2018-11-22T07:04:48.041Z,17.37
2018-11-22T07:05:48.166Z,17.39
2018-11-22T07:06:48.332Z,17.41
2018-11-22T07:07:48.075Z,17.41
2018-11-22T07:08:48.079Z,17.41
2018-11-22T07:09:48.097Z,17.35
2018-11-22T07:10:48.233Z,17.38
2018-11-22T07:11:48.124Z,17.35
2018-11-22T07:12:48.129Z,17.32
2018-11-22T07:14:48.160Z,17.31
2018-11-22T07:15:48.325Z,17.37
2018-11-22T07:16:48.243Z,17.50
2018-11-22T07:17:48.195Z,17.47
2018-11-22T07:18:48.212Z,17.57
2018-11-22T07:19:48.269Z,17.42
2018-11-22T07:20:48.406Z,17.41
2018-11-22T07:21:48.374Z,17.52
2018-11-22T07:22:48.264Z,17.57
2018-11-22T07:23:48.274Z,17.53
2018-11-22T07:24:48.293Z,17.49
2018-11-22T07:25:48.522Z,17.50
2018-11-22T07:26:48.309Z,17.52
2018-11-22T07:27:48.350Z,17.56
2018-11-22T07:28:48.353Z,17.65
2018-11-22T07:29:48.357Z,17.60
2018-11-22T07:30:48.463Z,17.52
2018-11-22T07:31:48.509Z,17.49
2018-11-22T07:32:48.414Z,17.42
2018-11-22T07:33:48.527Z,17.42
2018-11-22T07:34:48.439Z,17.44
2018-11-22T07:35:48.578Z,17.47
2018-11-22T07:36:48.442Z,17.53
2018-11-22T07:37:48.459Z,17.59
2018-11-22T07:38:48.474Z,17.60
2018-11-22T07:39:48.482Z,17.68
2018-11-22T07:40:48.486Z,17.76
2018-11-22T07:41:48.672Z,17.76
2018-11-22T07:42:50.625Z,17.80
2018-11-22T07:43:48.543Z,17.76
2018-11-22T07:44:48.545Z,17.71
2018-11-22T07:45:48.688Z,17.72
2018-11-22T07:46:48.722Z,17.82
2018-11-22T07:47:48.610Z,17.78
2018-11-22T07:48:48.645Z,17.84
2018-11-22T07:49:48.610Z,17.79
2018-11-22T07:50:48.630Z,17.82
2018-11-22T07:51:48.786Z,17.91
2018-11-22T07:52:48.781Z,17.84
2018-11-22T07:53:48.667Z,17.94
2018-11-22T07:54:48.681Z,17.88
2018-11-22T07:55:48.716Z,17.84
2018-11-22T07:56:48.859Z,17.97
2018-11-22T07:57:48.767Z,17.98
2018-11-22T07:58:48.727Z,17.98
2018-11-22T07:59:48.744Z,17.91
2018-11-22T08:00:48.885Z,18.03
2018-11-22T08:01:48.961Z,17.97
2018-11-22T08:02:48.788Z,17.93
2018-11-22T08:03:48.802Z,18.02
2018-11-22T08:04:48.938Z,17.95
2018-11-22T08:05:48.947Z,18.00
2018-11-22T08:06:49.115Z,18.03
2018-11-22T08:07:48.977Z,18.02
2018-11-22T08:08:48.859Z,18.02
2018-11-22T08:09:49.000Z,18.06
2018-11-22T08:10:48.886Z,18.11
2018-11-22T08:11:49.004Z,18.09
2018-11-22T08:12:49.012Z,18.11
2018-11-22T08:13:49.054Z,18.11
2018-11-22T08:14:48.954Z,18.24
2018-11-22T08:15:48.959Z,18.16
2018-11-22T08:16:49.124Z,18.19
2018-11-22T08:17:48.993Z,18.16
2018-11-22T08:18:48.993Z,18.19
2018-11-22T08:19:49.014Z,18.24
2018-11-22T08:20:49.049Z,18.19
2018-11-22T08:21:49.037Z,18.21
2018-11-22T08:22:49.276Z,18.21
2018-11-22T08:23:49.067Z,18.21
2018-11-22T08:24:49.082Z,18.24
2018-11-22T08:25:49.136Z,18.26
2018-11-22T08:26:49.273Z,18.23
2018-11-22T08:27:49.391Z,18.30
2018-11-22T08:28:49.135Z,18.27
2018-11-22T08:29:49.267Z,18.28
2018-11-22T08:30:49.284Z,18.30
2018-11-22T08:31:49.172Z,18.30
2018-11-22T08:32:52.659Z,18.30
2018-11-22T08:33:49.490Z,18.26
2018-11-22T08:34:49.263Z,18.28
2018-11-22T08:35:49.224Z,18.33
2018-11-22T08:36:49.254Z,18.36
2018-11-22T08:37:49.373Z,18.37
2018-11-22T08:38:49.408Z,18.48
2018-11-22T08:39:49.310Z,18.52
2018-11-22T08:40:49.292Z,18.61
2018-11-22T08:41:49.307Z,18.61
2018-11-22T08:42:55.152Z,18.52
2018-11-22T08:43:49.610Z,18.53
2018-11-22T08:44:49.474Z,18.64
2018-11-22T08:45:49.369Z,18.68
2018-11-22T08:46:49.373Z,18.73
2018-11-22T08:47:49.390Z,18.68
2018-11-22T08:48:49.498Z,18.66
2018-11-22T08:49:49.541Z,18.68
2018-11-22T08:50:49.420Z,18.71
2018-11-22T08:51:49.448Z,18.67
2018-11-22T08:52:49.463Z,18.64
2018-11-22T08:53:49.745Z,18.73
2018-11-22T08:54:49.607Z,18.78
2018-11-22T08:55:49.511Z,18.79
2018-11-22T08:56:49.634Z,18.73
2018-11-22T08:57:49.527Z,18.76
2018-11-22T08:58:49.701Z,18.82
2018-11-22T08:59:49.553Z,19.00
2018-11-22T09:00:49.693Z,19.12
2018-11-22T09:01:49.582Z,19.27
2018-11-22T09:02:49.621Z,19.48
2018-11-22T09:03:49.883Z,19.77
2018-11-22T09:04:49.679Z,19.93
2018-11-22T09:05:49.628Z,20.08
2018-11-22T09:06:49.772Z,20.15
2018-11-22T09:07:49.794Z,20.40
2018-11-22T09:08:49.728Z,20.68
2018-11-22T09:09:49.683Z,20.88
2018-11-22T09:10:49.720Z,21.19
2018-11-22T09:11:49.852Z,21.45
2018-11-22T09:12:49.867Z,21.74
2018-11-22T09:13:49.933Z,21.97
2018-11-22T09:14:49.759Z,22.15
2018-11-22T09:15:49.800Z,22.41
2018-11-22T09:16:49.925Z,22.51
2018-11-22T09:17:49.831Z,22.77
2018-11-22T09:18:50.014Z,22.98
2018-11-22T09:19:49.868Z,23.29
2018-11-22T09:20:49.873Z,23.66
2018-11-22T09:21:49.943Z,23.82
2018-11-22T09:22:49.899Z,24.06
2018-11-22T09:23:50.016Z,24.37
2018-11-22T09:24:49.955Z,24.62
2018-11-22T09:25:50.080Z,24.85
2018-11-22T09:26:49.969Z,25.06
2018-11-22T09:27:49.990Z,25.22
2018-11-22T09:28:50.125Z,25.51
2018-11-22T09:29:50.023Z,25.70
2018-11-22T09:30:50.049Z,25.95
2018-11-22T09:31:50.063Z,26.13
2018-11-22T09:32:50.208Z,26.36
2018-11-22T09:33:50.242Z,26.53
2018-11-22T09:34:50.142Z,26.66
2018-11-22T09:35:50.183Z,26.86
2018-11-22T09:36:50.164Z,26.91
2018-11-22T09:37:50.174Z,27.11
2018-11-22T09:38:50.466Z,27.11
2018-11-22T09:39:50.334Z,27.33
2018-11-22T09:40:50.229Z,27.34
2018-11-22T09:41:50.256Z,27.44
2018-11-22T09:42:50.281Z,27.37
2018-11-22T09:43:50.420Z,27.44
2018-11-22T09:44:50.313Z,27.60
2018-11-22T09:45:50.452Z,27.64
2018-11-22T09:46:50.351Z,27.81
2018-11-22T09:47:50.495Z,28.04
2018-11-22T09:48:50.695Z,27.97
2018-11-22T09:49:50.427Z,27.85
2018-11-22T09:50:50.427Z,27.91
2018-11-22T09:51:50.480Z,28.12
2018-11-22T09:52:50.463Z,28.38
2018-11-22T09:53:50.607Z,28.70
2018-11-22T09:54:50.519Z,28.93
2018-11-22T09:55:50.545Z,29.40
2018-11-22T09:56:50.535Z,29.79
2018-11-22T09:57:50.694Z,30.27
2018-11-22T09:58:50.751Z,30.36
2018-11-22T09:59:50.611Z,30.39
2018-11-22T10:00:50.647Z,30.61
2018-11-22T10:01:50.651Z,30.71
2018-11-22T10:02:50.684Z,30.73
2018-11-22T10:03:50.912Z,30.70
2018-11-22T10:04:50.987Z,30.52
2018-11-22T10:05:50.826Z,30.44
2018-11-22T10:06:50.879Z,30.31
2018-11-22T10:07:50.786Z,30.44
2018-11-22T10:08:50.908Z,30.32
2018-11-22T10:09:50.812Z,30.16
2018-11-22T10:10:50.844Z,30.08
2018-11-22T10:11:50.978Z,30.18
2018-11-22T10:12:50.929Z,30.23
2018-11-22T10:13:51.015Z,30.44
2018-11-22T10:14:50.925Z,30.44
2018-11-22T10:15:50.950Z,30.43
2018-11-22T10:16:51.015Z,30.65
2018-11-22T10:17:50.996Z,30.96
2018-11-22T10:18:51.126Z,30.96
2018-11-22T10:19:51.024Z,30.92
2018-11-22T10:20:51.178Z,31.02
2018-11-22T10:21:51.073Z,30.96
2018-11-22T10:22:51.092Z,30.89
2018-11-22T10:23:51.286Z,30.88
2018-11-22T10:24:51.260Z,31.08
2018-11-22T10:25:51.157Z,31.28
2018-11-22T10:26:51.177Z,31.87
2018-11-22T10:27:51.205Z,32.39
2018-11-22T10:28:51.330Z,32.88
2018-11-22T10:29:51.290Z,33.35
2018-11-22T10:30:51.317Z,33.69
2018-11-22T10:31:51.344Z,34.00
2018-11-22T10:32:51.305Z,34.26
2018-11-22T10:33:51.430Z,34.50
2018-11-22T10:34:51.370Z,34.76
2018-11-22T10:35:51.507Z,34.56
2018-11-22T10:36:51.412Z,34.50
2018-11-22T10:37:51.687Z,34.41
2018-11-22T10:38:51.544Z,34.06
2018-11-22T10:39:51.474Z,34.00
2018-11-22T10:40:51.621Z,33.98
2018-11-22T10:41:51.523Z,33.89
2018-11-22T10:42:51.537Z,33.81
2018-11-22T10:43:51.633Z,33.85
2018-11-22T10:44:51.595Z,33.88
2018-11-22T10:45:51.609Z,33.75
2018-11-22T10:46:51.639Z,33.48
2018-11-22T10:47:51.660Z,33.38
2018-11-22T10:48:51.831Z,33.50
2018-11-22T10:49:51.703Z,33.45
2018-11-22T10:50:51.855Z,33.28
2018-11-22T10:51:51.757Z,33.39
2018-11-22T10:52:51.798Z,33.65
2018-11-22T10:53:51.908Z,33.79
2018-11-22T10:54:51.826Z,33.89
2018-11-22T10:55:52.004Z,34.14
2018-11-22T10:56:51.866Z,34.28
2018-11-22T10:57:53.901Z,34.43
2018-11-22T10:58:52.075Z,34.60
2018-11-22T10:59:51.951Z,34.98
2018-11-22T11:00:51.982Z,35.15
2018-11-22T11:01:52.014Z,35.45
2018-11-22T11:02:52.144Z,35.76
2018-11-22T11:03:52.139Z,35.93
2018-11-22T11:04:52.104Z,35.98
2018-11-22T11:05:52.098Z,36.01
2018-11-22T11:06:52.262Z,35.84
2018-11-22T11:07:52.140Z,35.74
2018-11-22T11:08:52.257Z,35.74
2018-11-22T11:09:52.239Z,35.72
2018-11-22T11:10:52.336Z,35.82
2018-11-22T11:11:52.231Z,35.93
2018-11-22T11:12:52.257Z,35.79
2018-11-22T11:13:52.334Z,35.75
2018-11-22T11:14:52.514Z,35.50
2018-11-22T11:15:52.351Z,35.38
2018-11-22T11:16:52.369Z,35.27
2018-11-22T11:17:52.556Z,35.22
2018-11-22T11:18:52.412Z,35.16
2018-11-22T11:19:52.456Z,35.37
2018-11-22T11:20:52.586Z,35.69
2018-11-22T11:21:52.502Z,35.81
2018-11-22T11:22:52.712Z,36.20
2018-11-22T11:23:52.548Z,36.41
2018-11-22T11:24:52.623Z,36.80
2018-11-22T11:25:52.581Z,37.00
2018-11-22T11:26:52.634Z,36.94
2018-11-22T11:27:52.908Z,37.14
2018-11-22T11:28:52.666Z,37.33
2018-11-22T11:29:52.687Z,37.44
2018-11-22T11:30:52.738Z,37.43
2018-11-22T11:31:52.742Z,37.37
2018-11-22T11:32:52.876Z,37.25
2018-11-22T11:33:52.909Z,37.47
2018-11-22T11:34:52.856Z,37.79
2018-11-22T11:35:52.854Z,37.79
2018-11-22T11:36:52.875Z,37.67
2018-11-22T11:37:52.958Z,37.56
2018-11-22T11:38:52.927Z,37.63
2018-11-22T11:39:52.939Z,37.83
2018-11-22T11:40:52.970Z,37.91
2018-11-22T11:41:53.007Z,38.20
2018-11-22T11:42:53.074Z,38.63
2018-11-22T11:43:53.174Z,38.92
2018-11-22T11:44:53.075Z,39.07
2018-11-22T11:45:53.156Z,39.20
2018-11-22T11:46:53.148Z,39.12
2018-11-22T11:47:53.199Z,39.11
2018-11-22T11:48:53.304Z,39.10
2018-11-22T11:49:53.333Z,39.34
2018-11-22T11:50:53.407Z,39.64
2018-11-22T11:51:53.270Z,39.93
2018-11-22T11:52:53.315Z,39.86
2018-11-22T11:53:53.443Z,39.63
2018-11-22T11:54:53.360Z,39.67
2018-11-22T11:55:53.428Z,39.88
2018-11-22T11:56:53.398Z,39.88
2018-11-22T11:57:53.431Z,40.08
2018-11-22T11:58:53.614Z,40.20
2018-11-22T11:59:53.474Z,40.20
2018-11-22T12:00:53.520Z,40.39
2018-11-22T12:01:53.536Z,40.52
2018-11-22T12:02:53.566Z,40.86
2018-11-22T12:03:53.912Z,40.90
2018-11-22T12:04:53.745Z,40.67
2018-11-22T12:05:53.663Z,40.48
2018-11-22T12:06:53.690Z,40.43
2018-11-22T12:07:53.700Z,40.66
2018-11-22T12:08:53.847Z,40.86
2018-11-22T12:09:56.306Z,40.78
2018-11-22T12:10:53.933Z,40.73
2018-11-22T12:11:53.834Z,40.55
2018-11-22T12:12:53.852Z,40.43
2018-11-22T12:13:53.869Z,40.70
2018-11-22T12:14:53.900Z,40.95
2018-11-22T12:15:54.041Z,41.11
2018-11-22T12:16:53.960Z,41.61
2018-11-22T12:17:54.035Z,41.90
2018-11-22T12:18:54.009Z,42.09
2018-11-22T12:19:54.053Z,42.22
2018-11-22T12:20:54.246Z,42.27
2018-11-22T12:21:54.104Z,42.17
2018-11-22T12:22:54.128Z,42.20
2018-11-22T12:23:54.214Z,42.14
2018-11-22T12:24:54.211Z,41.76
2018-11-22T12:25:54.268Z,41.88
2018-11-22T12:26:54.366Z,42.22
2018-11-22T12:27:54.262Z,42.37
2018-11-22T12:28:54.314Z,42.27
2018-11-22T12:29:54.465Z,42.22
2018-11-22T12:30:54.469Z,42.06
2018-11-22T12:31:54.396Z,42.10
2018-11-22T12:32:54.549Z,42.10
2018-11-22T12:33:54.447Z,42.09
2018-11-22T12:34:54.488Z,42.29
2018-11-22T12:35:54.680Z,42.51
2018-11-22T12:36:54.598Z,42.93
2018-11-22T12:37:54.601Z,43.24
2018-11-22T12:38:54.607Z,43.41
2018-11-22T12:39:54.678Z,43.18
2018-11-22T12:40:54.833Z,42.94
2018-11-22T12:41:54.805Z,42.62
2018-11-22T12:42:54.841Z,42.40
2018-11-22T12:43:54.866Z,42.18
2018-11-22T12:44:54.901Z,42.12
2018-11-22T12:45:54.967Z,41.99
2018-11-22T12:46:54.835Z,42.10
2018-11-22T12:47:54.992Z,42.18
2018-11-22T12:48:54.907Z,42.20
2018-11-22T12:49:55.058Z,42.58
2018-11-22T12:50:55.065Z,43.05
2018-11-22T12:51:55.107Z,43.22
2018-11-22T12:52:55.139Z,43.39
2018-11-22T12:53:55.049Z,43.54